sensor_id;sensor_type;location;lat;lon;timestamp;P1;durP1;ratioP1;P2;durP2;ratioP2
27543;SDS011;17996;51.056;3.656;2022-12-10T00:00:41;129.80;;;52.65;;
27543;SDS011;17996;51.056;3.656;2022-12-10T00:03:07;138.70;;;54.08;;
27543;SDS011;17996;51.056;3.656;2022-12-10T00:05:33;132.15;;;55.63;;
27543;SDS011;17996;51.056;3.656;2022-12-10T00:07:59;134.13;;;53.20;;
27543;SDS011;17996;51.056;3.656;2022-12-10T00:10:25;123.47;;;52.00;;
27543;SDS011;17996;51.056;3.656;2022-12-10T00:12:51;129.57;;;51.08;;
27543;SDS011;17996;51.056;3.656;2022-12-10T00:15:17;129.70;;;52.95;;
27543;SDS011;17996;51.056;3.656;2022-12-10T00:17:43;120.07;;;52.08;;
27543;SDS011;17996;51.056;3.656;2022-12-10T00:20:08;134.32;;;52.78;;
27543;SDS011;17996;51.056;3.656;2022-12-10T00:22:35;116.15;;;49.63;;
27543;SDS011;17996;51.056;3.656;2022-12-10T00:25:01;116.75;;;51.22;;
27543;SDS011;17996;51.056;3.656;2022-12-10T00:27:26;132.52;;;53.38;;
27543;SDS011;17996;51.056;3.656;2022-12-10T00:29:52;137.98;;;54.38;;
27543;SDS011;17996;51.056;3.656;2022-12-10T00:32:17;123.75;;;54.05;;
27543;SDS011;17996;51.056;3.656;2022-12-10T00:34:43;134.30;;;52.85;;
27543;SDS011;17996;51.056;3.656;2022-12-10T00:37:09;131.70;;;53.17;;
27543;SDS011;17996;51.056;3.656;2022-12-10T00:39:34;138.30;;;54.58;;
27543;SDS011;17996;51.056;3.656;2022-12-10T00:42:00;134.90;;;52.45;;
27543;SDS011;17996;51.056;3.656;2022-12-10T00:44:26;137.23;;;53.15;;
27543;SDS011;17996;51.056;3.656;2022-12-10T00:46:52;146.43;;;55.45;;
27543;SDS011;17996;51.056;3.656;2022-12-10T00:49:17;132.35;;;52.90;;
27543;SDS011;17996;51.056;3.656;2022-12-10T00:51:43;139.93;;;54.15;;
27543;SDS011;17996;51.056;3.656;2022-12-10T00:54:09;134.48;;;53.38;;
27543;SDS011;17996;51.056;3.656;2022-12-10T00:56:36;125.28;;;48.72;;
27543;SDS011;17996;51.056;3.656;2022-12-10T00:59:02;134.63;;;54.85;;
27543;SDS011;17996;51.056;3.656;2022-12-10T01:01:29;140.52;;;55.70;;
27543;SDS011;17996;51.056;3.656;2022-12-10T01:03:59;131.73;;;54.65;;
27543;SDS011;17996;51.056;3.656;2022-12-10T01:06:34;141.25;;;56.08;;
27543;SDS011;17996;51.056;3.656;2022-12-10T01:09:11;142.93;;;56.00;;
27543;SDS011;17996;51.056;3.656;2022-12-10T01:11:39;141.48;;;54.15;;
27543;SDS011;17996;51.056;3.656;2022-12-10T01:14:07;131.20;;;53.33;;
27543;SDS011;17996;51.056;3.656;2022-12-10T01:16:34;130.05;;;54.75;;
27543;SDS011;17996;51.056;3.656;2022-12-10T01:19:01;135.63;;;54.22;;
27543;SDS011;17996;51.056;3.656;2022-12-10T01:21:27;140.23;;;54.45;;
27543;SDS011;17996;51.056;3.656;2022-12-10T01:23:54;141.40;;;52.17;;
27543;SDS011;17996;51.056;3.656;2022-12-10T01:26:22;146.98;;;55.50;;
27543;SDS011;17996;51.056;3.656;2022-12-10T01:28:49;141.57;;;56.65;;
27543;SDS011;17996;51.056;3.656;2022-12-10T01:31:16;133.95;;;53.30;;
27543;SDS011;17996;51.056;3.656;2022-12-10T01:34:02;135.45;;;55.70;;
27543;SDS011;17996;51.056;3.656;2022-12-10T01:36:31;133.80;;;53.35;;
27543;SDS011;17996;51.056;3.656;2022-12-10T01:38:59;143.38;;;57.75;;
27543;SDS011;17996;51.056;3.656;2022-12-10T01:41:29;152.85;;;57.38;;
27543;SDS011;17996;51.056;3.656;2022-12-10T01:46:28;140.10;;;56.10;;
27543;SDS011;17996;51.056;3.656;2022-12-10T01:48:59;141.75;;;54.88;;
27543;SDS011;17996;51.056;3.656;2022-12-10T01:51:27;149.15;;;50.10;;
27543;SDS011;17996;51.056;3.656;2022-12-10T01:53:54;168.18;;;48.75;;
27543;SDS011;17996;51.056;3.656;2022-12-10T01:56:21;121.07;;;50.38;;
27543;SDS011;17996;51.056;3.656;2022-12-10T01:58:47;129.88;;;49.53;;
27543;SDS011;17996;51.056;3.656;2022-12-10T02:01:30;130.25;;;49.80;;
27543;SDS011;17996;51.056;3.656;2022-12-10T02:04:13;127.72;;;48.20;;
27543;SDS011;17996;51.056;3.656;2022-12-10T02:09:19;124.63;;;43.90;;
27543;SDS011;17996;51.056;3.656;2022-12-10T02:12:16;161.00;;;44.70;;
27543;SDS011;17996;51.056;3.656;2022-12-10T02:20:11;91.95;;;40.92;;
27543;SDS011;17996;51.056;3.656;2022-12-10T02:23:24;118.68;;;43.13;;
27543;SDS011;17996;51.056;3.656;2022-12-10T02:31:11;115.97;;;42.00;;
27543;SDS011;17996;51.056;3.656;2022-12-10T02:33:42;104.38;;;43.05;;
27543;SDS011;17996;51.056;3.656;2022-12-10T02:36:12;141.68;;;40.13;;
27543;SDS011;17996;51.056;3.656;2022-12-10T02:38:39;105.95;;;43.78;;
27543;SDS011;17996;51.056;3.656;2022-12-10T02:41:49;128.90;;;43.08;;
27543;SDS011;17996;51.056;3.656;2022-12-10T02:44:00;151.65;;;42.42;;
27543;SDS011;17996;51.056;3.656;2022-12-10T02:46:29;154.70;;;42.00;;
27543;SDS011;17996;51.056;3.656;2022-12-10T02:48:57;88.00;;;40.83;;
27543;SDS011;17996;51.056;3.656;2022-12-10T02:51:25;93.20;;;40.05;;
27543;SDS011;17996;51.056;3.656;2022-12-10T02:53:58;122.50;;;44.53;;
27543;SDS011;17996;51.056;3.656;2022-12-10T02:56:42;120.45;;;40.95;;
27543;SDS011;17996;51.056;3.656;2022-12-10T03:01:54;145.00;;;43.55;;
27543;SDS011;17996;51.056;3.656;2022-12-10T03:04:28;100.13;;;42.30;;
27543;SDS011;17996;51.056;3.656;2022-12-10T03:07:02;141.18;;;43.65;;
27543;SDS011;17996;51.056;3.656;2022-12-10T03:09:36;110.57;;;40.83;;
27543;SDS011;17996;51.056;3.656;2022-12-10T03:12:29;125.80;;;43.97;;
27543;SDS011;17996;51.056;3.656;2022-12-10T03:15:00;113.32;;;38.65;;
27543;SDS011;17996;51.056;3.656;2022-12-10T03:17:30;88.93;;;39.25;;
27543;SDS011;17996;51.056;3.656;2022-12-10T03:19:57;93.95;;;39.65;;
27543;SDS011;17996;51.056;3.656;2022-12-10T03:22:25;99.40;;;37.78;;
27543;SDS011;17996;51.056;3.656;2022-12-10T03:24:51;106.03;;;37.78;;
27543;SDS011;17996;51.056;3.656;2022-12-10T03:27:19;107.88;;;41.10;;
27543;SDS011;17996;51.056;3.656;2022-12-10T03:29:47;91.68;;;40.65;;
27543;SDS011;17996;51.056;3.656;2022-12-10T03:32:15;120.57;;;40.00;;
27543;SDS011;17996;51.056;3.656;2022-12-10T03:34:43;112.45;;;41.65;;
27543;SDS011;17996;51.056;3.656;2022-12-10T03:37:10;104.55;;;39.42;;
27543;SDS011;17996;51.056;3.656;2022-12-10T03:39:36;136.88;;;44.70;;
27543;SDS011;17996;51.056;3.656;2022-12-10T03:42:04;135.85;;;40.72;;
27543;SDS011;17996;51.056;3.656;2022-12-10T03:44:31;96.18;;;38.42;;
27543;SDS011;17996;51.056;3.656;2022-12-10T03:46:58;90.55;;;39.72;;
27543;SDS011;17996;51.056;3.656;2022-12-10T03:49:25;88.40;;;39.13;;
27543;SDS011;17996;51.056;3.656;2022-12-10T03:51:51;125.72;;;39.50;;
27543;SDS011;17996;51.056;3.656;2022-12-10T03:54:16;97.72;;;39.83;;
27543;SDS011;17996;51.056;3.656;2022-12-10T03:56:42;132.82;;;41.35;;
27543;SDS011;17996;51.056;3.656;2022-12-10T03:59:08;122.82;;;42.90;;
27543;SDS011;17996;51.056;3.656;2022-12-10T04:01:34;104.00;;;39.88;;
27543;SDS011;17996;51.056;3.656;2022-12-10T04:04:00;97.60;;;41.85;;
27543;SDS011;17996;51.056;3.656;2022-12-10T04:06:28;123.03;;;42.88;;
27543;SDS011;17996;51.056;3.656;2022-12-10T04:08:53;113.63;;;41.15;;
27543;SDS011;17996;51.056;3.656;2022-12-10T04:11:19;127.25;;;39.67;;
27543;SDS011;17996;51.056;3.656;2022-12-10T04:13:44;109.22;;;40.67;;
27543;SDS011;17996;51.056;3.656;2022-12-10T04:16:29;98.38;;;39.85;;
27543;SDS011;17996;51.056;3.656;2022-12-10T04:21:26;136.85;;;38.95;;
27543;SDS011;17996;51.056;3.656;2022-12-10T04:24:11;94.18;;;38.45;;
27543;SDS011;17996;51.056;3.656;2022-12-10T04:26:57;111.38;;;39.03;;
27543;SDS011;17996;51.056;3.656;2022-12-10T04:29:26;105.20;;;40.78;;
27543;SDS011;17996;51.056;3.656;2022-12-10T04:31:53;111.65;;;42.22;;
27543;SDS011;17996;51.056;3.656;2022-12-10T04:34:19;121.85;;;41.95;;
27543;SDS011;17996;51.056;3.656;2022-12-10T04:36:45;139.02;;;39.08;;
27543;SDS011;17996;51.056;3.656;2022-12-10T04:39:11;119.18;;;39.83;;
27543;SDS011;17996;51.056;3.656;2022-12-10T04:41:39;119.55;;;39.47;;
27543;SDS011;17996;51.056;3.656;2022-12-10T04:44:05;132.10;;;37.83;;
27543;SDS011;17996;51.056;3.656;2022-12-10T04:46:31;123.82;;;35.88;;
27543;SDS011;17996;51.056;3.656;2022-12-10T04:48:57;123.20;;;38.03;;
27543;SDS011;17996;51.056;3.656;2022-12-10T04:51:22;193.23;;;35.35;;
27543;SDS011;17996;51.056;3.656;2022-12-10T04:53:49;127.38;;;36.60;;
27543;SDS011;17996;51.056;3.656;2022-12-10T04:56:15;128.77;;;37.83;;
27543;SDS011;17996;51.056;3.656;2022-12-10T04:58:41;140.55;;;37.60;;
27543;SDS011;17996;51.056;3.656;2022-12-10T05:01:07;131.40;;;37.53;;
27543;SDS011;17996;51.056;3.656;2022-12-10T05:03:34;110.97;;;36.97;;
27543;SDS011;17996;51.056;3.656;2022-12-10T05:06:01;103.47;;;37.75;;
27543;SDS011;17996;51.056;3.656;2022-12-10T05:08:28;149.93;;;37.25;;
27543;SDS011;17996;51.056;3.656;2022-12-10T05:10:54;119.65;;;37.67;;
27543;SDS011;17996;51.056;3.656;2022-12-10T05:13:20;89.28;;;36.65;;
27543;SDS011;17996;51.056;3.656;2022-12-10T05:15:46;113.57;;;37.80;;
27543;SDS011;17996;51.056;3.656;2022-12-10T05:18:12;98.43;;;37.15;;
27543;SDS011;17996;51.056;3.656;2022-12-10T05:20:37;115.35;;;38.50;;
27543;SDS011;17996;51.056;3.656;2022-12-10T05:23:03;118.10;;;36.60;;
27543;SDS011;17996;51.056;3.656;2022-12-10T05:25:47;88.82;;;36.00;;
27543;SDS011;17996;51.056;3.656;2022-12-10T05:28:19;89.57;;;37.35;;
27543;SDS011;17996;51.056;3.656;2022-12-10T05:30:46;107.15;;;34.78;;
27543;SDS011;17996;51.056;3.656;2022-12-10T05:33:12;100.97;;;39.30;;
27543;SDS011;17996;51.056;3.656;2022-12-10T05:35:38;165.95;;;39.35;;
27543;SDS011;17996;51.056;3.656;2022-12-10T05:38:03;90.85;;;37.33;;
27543;SDS011;17996;51.056;3.656;2022-12-10T05:40:33;170.43;;;38.97;;
27543;SDS011;17996;51.056;3.656;2022-12-10T05:43:00;136.23;;;39.85;;
27543;SDS011;17996;51.056;3.656;2022-12-10T05:45:26;143.88;;;36.97;;
27543;SDS011;17996;51.056;3.656;2022-12-10T05:47:51;152.63;;;36.60;;
27543;SDS011;17996;51.056;3.656;2022-12-10T05:50:17;85.55;;;35.65;;
27543;SDS011;17996;51.056;3.656;2022-12-10T05:52:42;183.20;;;37.33;;
27543;SDS011;17996;51.056;3.656;2022-12-10T05:55:08;167.00;;;35.58;;
27543;SDS011;17996;51.056;3.656;2022-12-10T05:57:35;166.93;;;34.72;;
27543;SDS011;17996;51.056;3.656;2022-12-10T06:00:03;208.35;;;37.58;;
27543;SDS011;17996;51.056;3.656;2022-12-10T06:02:32;167.68;;;36.40;;
27543;SDS011;17996;51.056;3.656;2022-12-10T06:04:58;117.18;;;35.05;;
27543;SDS011;17996;51.056;3.656;2022-12-10T06:07:23;83.32;;;36.72;;
27543;SDS011;17996;51.056;3.656;2022-12-10T06:09:49;123.20;;;34.45;;
27543;SDS011;17996;51.056;3.656;2022-12-10T06:12:15;129.50;;;37.35;;
27543;SDS011;17996;51.056;3.656;2022-12-10T06:14:41;105.80;;;38.00;;
27543;SDS011;17996;51.056;3.656;2022-12-10T06:17:07;154.25;;;39.05;;
27543;SDS011;17996;51.056;3.656;2022-12-10T06:19:32;134.60;;;37.72;;
27543;SDS011;17996;51.056;3.656;2022-12-10T06:21:58;130.60;;;37.33;;
27543;SDS011;17996;51.056;3.656;2022-12-10T06:24:24;115.57;;;37.30;;
27543;SDS011;17996;51.056;3.656;2022-12-10T06:26:50;232.38;;;37.00;;
27543;SDS011;17996;51.056;3.656;2022-12-10T06:29:16;88.20;;;36.35;;
27543;SDS011;17996;51.056;3.656;2022-12-10T06:31:42;96.85;;;37.42;;
27543;SDS011;17996;51.056;3.656;2022-12-10T06:34:08;117.72;;;38.03;;
27543;SDS011;17996;51.056;3.656;2022-12-10T06:36:34;118.03;;;36.85;;
27543;SDS011;17996;51.056;3.656;2022-12-10T06:39:00;164.77;;;36.45;;
27543;SDS011;17996;51.056;3.656;2022-12-10T06:41:27;140.20;;;35.53;;
27543;SDS011;17996;51.056;3.656;2022-12-10T06:43:53;147.57;;;36.53;;
27543;SDS011;17996;51.056;3.656;2022-12-10T06:46:19;117.90;;;39.13;;
27543;SDS011;17996;51.056;3.656;2022-12-10T06:48:46;216.20;;;38.17;;
27543;SDS011;17996;51.056;3.656;2022-12-10T06:51:12;135.55;;;36.47;;
27543;SDS011;17996;51.056;3.656;2022-12-10T06:53:39;113.68;;;35.90;;
27543;SDS011;17996;51.056;3.656;2022-12-10T06:56:05;117.38;;;37.55;;
27543;SDS011;17996;51.056;3.656;2022-12-10T06:58:32;120.40;;;36.45;;
27543;SDS011;17996;51.056;3.656;2022-12-10T07:01:06;126.75;;;37.65;;
27543;SDS011;17996;51.056;3.656;2022-12-10T07:03:34;80.15;;;34.08;;
27543;SDS011;17996;51.056;3.656;2022-12-10T07:06:00;113.35;;;34.10;;
27543;SDS011;17996;51.056;3.656;2022-12-10T07:08:27;103.00;;;36.38;;
27543;SDS011;17996;51.056;3.656;2022-12-10T07:10:53;144.18;;;37.85;;
27543;SDS011;17996;51.056;3.656;2022-12-10T07:13:19;131.35;;;39.67;;
27543;SDS011;17996;51.056;3.656;2022-12-10T07:15:45;117.85;;;36.60;;
27543;SDS011;17996;51.056;3.656;2022-12-10T07:18:10;73.38;;;34.15;;
27543;SDS011;17996;51.056;3.656;2022-12-10T07:20:36;98.50;;;36.30;;
27543;SDS011;17996;51.056;3.656;2022-12-10T07:23:02;124.55;;;36.65;;
27543;SDS011;17996;51.056;3.656;2022-12-10T07:25:27;108.80;;;37.53;;
27543;SDS011;17996;51.056;3.656;2022-12-10T07:27:53;95.97;;;35.30;;
27543;SDS011;17996;51.056;3.656;2022-12-10T07:30:19;135.25;;;36.03;;
27543;SDS011;17996;51.056;3.656;2022-12-10T07:32:44;87.82;;;35.22;;
27543;SDS011;17996;51.056;3.656;2022-12-10T07:35:10;114.30;;;35.22;;
27543;SDS011;17996;51.056;3.656;2022-12-10T07:37:36;127.22;;;36.17;;
27543;SDS011;17996;51.056;3.656;2022-12-10T07:40:02;100.97;;;33.92;;
27543;SDS011;17996;51.056;3.656;2022-12-10T07:42:27;100.68;;;33.97;;
27543;SDS011;17996;51.056;3.656;2022-12-10T07:44:53;105.88;;;35.38;;
27543;SDS011;17996;51.056;3.656;2022-12-10T07:47:19;92.30;;;36.03;;
27543;SDS011;17996;51.056;3.656;2022-12-10T07:49:44;128.52;;;36.47;;
27543;SDS011;17996;51.056;3.656;2022-12-10T07:52:10;101.10;;;38.33;;
27543;SDS011;17996;51.056;3.656;2022-12-10T07:54:36;92.78;;;36.78;;
27543;SDS011;17996;51.056;3.656;2022-12-10T07:57:01;94.85;;;35.15;;
27543;SDS011;17996;51.056;3.656;2022-12-10T07:59:27;106.45;;;35.40;;
27543;SDS011;17996;51.056;3.656;2022-12-10T08:01:53;102.05;;;35.88;;
27543;SDS011;17996;51.056;3.656;2022-12-10T08:04:18;76.85;;;34.30;;
27543;SDS011;17996;51.056;3.656;2022-12-10T08:06:44;103.00;;;37.50;;
27543;SDS011;17996;51.056;3.656;2022-12-10T08:09:10;88.03;;;35.90;;
27543;SDS011;17996;51.056;3.656;2022-12-10T08:11:36;92.45;;;35.90;;
27543;SDS011;17996;51.056;3.656;2022-12-10T08:14:02;100.85;;;37.25;;
27543;SDS011;17996;51.056;3.656;2022-12-10T08:16:28;103.60;;;35.72;;
27543;SDS011;17996;51.056;3.656;2022-12-10T08:18:56;82.55;;;34.50;;
27543;SDS011;17996;51.056;3.656;2022-12-10T08:21:25;101.68;;;37.20;;
27543;SDS011;17996;51.056;3.656;2022-12-10T08:23:53;107.35;;;38.83;;
27543;SDS011;17996;51.056;3.656;2022-12-10T08:26:20;111.13;;;39.75;;
27543;SDS011;17996;51.056;3.656;2022-12-10T08:28:47;127.60;;;40.00;;
27543;SDS011;17996;51.056;3.656;2022-12-10T08:31:13;113.80;;;40.22;;
27543;SDS011;17996;51.056;3.656;2022-12-10T08:33:40;115.75;;;40.90;;
27543;SDS011;17996;51.056;3.656;2022-12-10T08:36:07;91.38;;;38.90;;
27543;SDS011;17996;51.056;3.656;2022-12-10T08:38:35;64.25;;;28.05;;
27543;SDS011;17996;51.056;3.656;2022-12-10T08:41:11;100.40;;;38.15;;
27543;SDS011;17996;51.056;3.656;2022-12-10T08:43:41;107.18;;;38.65;;
27543;SDS011;17996;51.056;3.656;2022-12-10T08:46:07;104.13;;;38.63;;
27543;SDS011;17996;51.056;3.656;2022-12-10T08:48:33;93.20;;;38.65;;
27543;SDS011;17996;51.056;3.656;2022-12-10T08:50:59;108.55;;;38.60;;
27543;SDS011;17996;51.056;3.656;2022-12-10T08:53:25;86.00;;;36.28;;
27543;SDS011;17996;51.056;3.656;2022-12-10T08:55:51;80.32;;;34.17;;
27543;SDS011;17996;51.056;3.656;2022-12-10T08:58:18;79.07;;;35.13;;
27543;SDS011;17996;51.056;3.656;2022-12-10T09:00:44;90.97;;;35.00;;
27543;SDS011;17996;51.056;3.656;2022-12-10T09:03:11;89.93;;;37.58;;
27543;SDS011;17996;51.056;3.656;2022-12-10T09:05:36;87.93;;;36.65;;
27543;SDS011;17996;51.056;3.656;2022-12-10T09:08:02;92.45;;;34.83;;
27543;SDS011;17996;51.056;3.656;2022-12-10T09:10:28;77.13;;;34.00;;
27543;SDS011;17996;51.056;3.656;2022-12-10T09:12:53;82.88;;;34.15;;
27543;SDS011;17996;51.056;3.656;2022-12-10T09:15:19;76.65;;;34.63;;
27543;SDS011;17996;51.056;3.656;2022-12-10T09:17:45;73.85;;;33.05;;
27543;SDS011;17996;51.056;3.656;2022-12-10T09:20:10;70.07;;;31.58;;
27543;SDS011;17996;51.056;3.656;2022-12-10T09:22:36;73.63;;;32.97;;
27543;SDS011;17996;51.056;3.656;2022-12-10T09:25:06;70.13;;;32.60;;
27543;SDS011;17996;51.056;3.656;2022-12-10T09:27:34;77.10;;;33.17;;
27543;SDS011;17996;51.056;3.656;2022-12-10T09:30:01;69.85;;;32.25;;
27543;SDS011;17996;51.056;3.656;2022-12-10T09:32:28;72.82;;;33.75;;
27543;SDS011;17996;51.056;3.656;2022-12-10T09:34:53;73.93;;;33.67;;
27543;SDS011;17996;51.056;3.656;2022-12-10T09:37:19;75.70;;;34.28;;
27543;SDS011;17996;51.056;3.656;2022-12-10T09:39:45;79.45;;;35.33;;
27543;SDS011;17996;51.056;3.656;2022-12-10T09:42:23;91.15;;;35.63;;
27543;SDS011;17996;51.056;3.656;2022-12-10T09:52:57;80.43;;;34.38;;
27543;SDS011;17996;51.056;3.656;2022-12-10T09:55:37;79.95;;;32.45;;
27543;SDS011;17996;51.056;3.656;2022-12-10T09:58:08;84.80;;;33.97;;
27543;SDS011;17996;51.056;3.656;2022-12-10T10:00:52;81.30;;;34.85;;
27543;SDS011;17996;51.056;3.656;2022-12-10T10:03:25;75.53;;;34.15;;
27543;SDS011;17996;51.056;3.656;2022-12-10T10:05:52;82.18;;;33.22;;
27543;SDS011;17996;51.056;3.656;2022-12-10T10:10:56;85.82;;;34.15;;
27543;SDS011;17996;51.056;3.656;2022-12-10T10:13:29;76.65;;;32.60;;
27543;SDS011;17996;51.056;3.656;2022-12-10T10:16:22;77.70;;;30.30;;
27543;SDS011;17996;51.056;3.656;2022-12-10T10:21:25;80.97;;;32.33;;
27543;SDS011;17996;51.056;3.656;2022-12-10T10:23:53;79.65;;;32.92;;
27543;SDS011;17996;51.056;3.656;2022-12-10T10:26:25;49.97;;;22.95;;
27543;SDS011;17996;51.056;3.656;2022-12-10T10:28:56;72.97;;;29.88;;
27543;SDS011;17996;51.056;3.656;2022-12-10T10:31:26;73.22;;;32.10;;
27543;SDS011;17996;51.056;3.656;2022-12-10T10:33:57;70.50;;;30.00;;
27543;SDS011;17996;51.056;3.656;2022-12-10T10:36:28;73.00;;;30.73;;
27543;SDS011;17996;51.056;3.656;2022-12-10T10:39:09;74.93;;;30.30;;
27543;SDS011;17996;51.056;3.656;2022-12-10T10:41:37;72.30;;;30.75;;
27543;SDS011;17996;51.056;3.656;2022-12-10T10:44:04;75.40;;;31.42;;
27543;SDS011;17996;51.056;3.656;2022-12-10T10:46:37;66.78;;;29.33;;
27543;SDS011;17996;51.056;3.656;2022-12-10T10:51:44;72.30;;;29.27;;
27543;SDS011;17996;51.056;3.656;2022-12-10T10:54:10;71.35;;;31.48;;
27543;SDS011;17996;51.056;3.656;2022-12-10T10:56:42;58.85;;;25.77;;
27543;SDS011;17996;51.056;3.656;2022-12-10T11:01:48;83.25;;;29.30;;
27543;SDS011;17996;51.056;3.656;2022-12-10T11:04:28;69.35;;;28.88;;
27543;SDS011;17996;51.056;3.656;2022-12-10T11:07:03;61.13;;;26.98;;
27543;SDS011;17996;51.056;3.656;2022-12-10T11:09:37;54.95;;;25.00;;
27543;SDS011;17996;51.056;3.656;2022-12-10T11:12:05;52.47;;;24.85;;
27543;SDS011;17996;51.056;3.656;2022-12-10T11:14:45;51.40;;;24.13;;
27543;SDS011;17996;51.056;3.656;2022-12-10T11:19:43;44.85;;;20.15;;
27543;SDS011;17996;51.056;3.656;2022-12-10T11:22:26;54.55;;;24.25;;
27543;SDS011;17996;51.056;3.656;2022-12-10T11:24:54;47.80;;;22.48;;
27543;SDS011;17996;51.056;3.656;2022-12-10T11:28:03;55.17;;;26.05;;
27543;SDS011;17996;51.056;3.656;2022-12-10T11:30:26;43.55;;;22.42;;
27543;SDS011;17996;51.056;3.656;2022-12-10T11:33:07;45.20;;;22.40;;
27543;SDS011;17996;51.056;3.656;2022-12-10T11:38:28;51.83;;;24.17;;
27543;SDS011;17996;51.056;3.656;2022-12-10T11:46:24;45.88;;;22.35;;
27543;SDS011;17996;51.056;3.656;2022-12-10T11:52:08;54.85;;;21.35;;
27543;SDS011;17996;51.056;3.656;2022-12-10T11:57:27;47.75;;;22.13;;
27543;SDS011;17996;51.056;3.656;2022-12-10T12:06:20;54.05;;;22.13;;
27543;SDS011;17996;51.056;3.656;2022-12-10T12:14:54;50.85;;;23.58;;
27543;SDS011;17996;51.056;3.656;2022-12-10T12:17:32;49.08;;;24.27;;
27543;SDS011;17996;51.056;3.656;2022-12-10T12:23:04;49.85;;;22.80;;
27543;SDS011;17996;51.056;3.656;2022-12-10T12:25:41;48.20;;;22.58;;
27543;SDS011;17996;51.056;3.656;2022-12-10T12:28:14;52.70;;;23.48;;
27543;SDS011;17996;51.056;3.656;2022-12-10T12:30:47;48.03;;;23.27;;
27543;SDS011;17996;51.056;3.656;2022-12-10T12:33:29;52.05;;;24.58;;
27543;SDS011;17996;51.056;3.656;2022-12-10T12:36:02;52.17;;;23.70;;
27543;SDS011;17996;51.056;3.656;2022-12-10T12:41:21;48.58;;;23.80;;
27543;SDS011;17996;51.056;3.656;2022-12-10T12:46:42;58.50;;;24.50;;
27543;SDS011;17996;51.056;3.656;2022-12-10T12:51:58;53.35;;;24.80;;
27543;SDS011;17996;51.056;3.656;2022-12-10T12:54:25;50.83;;;24.25;;
27543;SDS011;17996;51.056;3.656;2022-12-10T12:56:53;48.35;;;25.60;;
27543;SDS011;17996;51.056;3.656;2022-12-10T12:59:33;51.63;;;26.42;;
27543;SDS011;17996;51.056;3.656;2022-12-10T13:05:11;53.10;;;25.70;;
27543;SDS011;17996;51.056;3.656;2022-12-10T13:07:44;54.55;;;25.17;;
27543;SDS011;17996;51.056;3.656;2022-12-10T13:10:58;50.17;;;24.75;;
27543;SDS011;17996;51.056;3.656;2022-12-10T13:14:28;55.28;;;26.17;;
27543;SDS011;17996;51.056;3.656;2022-12-10T13:27:36;52.60;;;25.63;;
27543;SDS011;17996;51.056;3.656;2022-12-10T13:46:20;58.78;;;29.85;;
27543;SDS011;17996;51.056;3.656;2022-12-10T13:49:05;59.72;;;27.83;;
27543;SDS011;17996;51.056;3.656;2022-12-10T13:54:30;61.90;;;30.73;;
27543;SDS011;17996;51.056;3.656;2022-12-10T13:59:49;59.55;;;29.88;;
27543;SDS011;17996;51.056;3.656;2022-12-10T14:11:19;69.32;;;31.88;;
27543;SDS011;17996;51.056;3.656;2022-12-10T14:13:49;58.55;;;29.92;;
27543;SDS011;17996;51.056;3.656;2022-12-10T14:16:19;67.47;;;31.92;;
27543;SDS011;17996;51.056;3.656;2022-12-10T14:19:11;64.13;;;33.75;;
27543;SDS011;17996;51.056;3.656;2022-12-10T14:21:37;62.03;;;32.13;;
27543;SDS011;17996;51.056;3.656;2022-12-10T14:24:05;63.47;;;34.13;;
27543;SDS011;17996;51.056;3.656;2022-12-10T14:26:32;61.03;;;32.22;;
27543;SDS011;17996;51.056;3.656;2022-12-10T14:31:32;57.72;;;33.13;;
27543;SDS011;17996;51.056;3.656;2022-12-10T14:34:06;65.15;;;31.83;;
27543;SDS011;17996;51.056;3.656;2022-12-10T14:36:34;59.78;;;31.25;;
27543;SDS011;17996;51.056;3.656;2022-12-10T14:39:31;56.67;;;30.60;;
27543;SDS011;17996;51.056;3.656;2022-12-10T14:41:58;55.78;;;30.30;;
27543;SDS011;17996;51.056;3.656;2022-12-10T14:44:26;54.20;;;31.40;;
27543;SDS011;17996;51.056;3.656;2022-12-10T14:46:52;56.03;;;33.20;;
27543;SDS011;17996;51.056;3.656;2022-12-10T14:49:47;57.05;;;31.25;;
27543;SDS011;17996;51.056;3.656;2022-12-10T14:52:16;62.58;;;31.83;;
27543;SDS011;17996;51.056;3.656;2022-12-10T14:54:46;71.40;;;35.45;;
27543;SDS011;17996;51.056;3.656;2022-12-10T14:57:35;68.10;;;35.88;;
27543;SDS011;17996;51.056;3.656;2022-12-10T15:02:37;64.72;;;33.28;;
27543;SDS011;17996;51.056;3.656;2022-12-10T15:07:38;60.88;;;31.65;;
27543;SDS011;17996;51.056;3.656;2022-12-10T15:10:06;57.83;;;31.38;;
27543;SDS011;17996;51.056;3.656;2022-12-10T15:12:38;59.63;;;34.92;;
27543;SDS011;17996;51.056;3.656;2022-12-10T15:15:16;58.03;;;33.88;;
27543;SDS011;17996;51.056;3.656;2022-12-10T15:20:21;59.70;;;32.45;;
27543;SDS011;17996;51.056;3.656;2022-12-10T15:22:54;51.88;;;30.35;;
27543;SDS011;17996;51.056;3.656;2022-12-10T15:25:30;59.20;;;31.15;;
27543;SDS011;17996;51.056;3.656;2022-12-10T15:28:19;64.53;;;32.70;;
27543;SDS011;17996;51.056;3.656;2022-12-10T15:31:41;56.00;;;31.02;;
27543;SDS011;17996;51.056;3.656;2022-12-10T15:34:01;55.80;;;30.25;;
27543;SDS011;17996;51.056;3.656;2022-12-10T15:36:40;56.65;;;33.78;;
27543;SDS011;17996;51.056;3.656;2022-12-10T15:39:28;53.15;;;33.08;;
27543;SDS011;17996;51.056;3.656;2022-12-10T15:41:58;54.80;;;32.08;;
27543;SDS011;17996;51.056;3.656;2022-12-10T15:47:20;56.95;;;33.65;;
27543;SDS011;17996;51.056;3.656;2022-12-10T15:49:48;59.22;;;30.08;;
27543;SDS011;17996;51.056;3.656;2022-12-10T15:52:15;62.45;;;32.97;;
27543;SDS011;17996;51.056;3.656;2022-12-10T15:54:47;54.15;;;30.50;;
27543;SDS011;17996;51.056;3.656;2022-12-10T15:57:19;57.33;;;34.72;;
27543;SDS011;17996;51.056;3.656;2022-12-10T15:59:46;59.55;;;31.52;;
27543;SDS011;17996;51.056;3.656;2022-12-10T16:02:24;61.00;;;31.48;;
27543;SDS011;17996;51.056;3.656;2022-12-10T16:07:38;54.15;;;28.75;;
27543;SDS011;17996;51.056;3.656;2022-12-10T16:10:04;59.58;;;32.33;;
27543;SDS011;17996;51.056;3.656;2022-12-10T16:12:30;51.30;;;30.83;;
27543;SDS011;17996;51.056;3.656;2022-12-10T16:14:57;57.65;;;31.15;;
27543;SDS011;17996;51.056;3.656;2022-12-10T16:17:27;55.67;;;31.17;;
27543;SDS011;17996;51.056;3.656;2022-12-10T16:19:57;58.95;;;32.78;;
27543;SDS011;17996;51.056;3.656;2022-12-10T16:22:44;63.78;;;37.30;;
27543;SDS011;17996;51.056;3.656;2022-12-10T16:25:11;65.15;;;36.35;;
27543;SDS011;17996;51.056;3.656;2022-12-10T16:27:37;92.88;;;47.63;;
27543;SDS011;17996;51.056;3.656;2022-12-10T16:30:17;87.85;;;45.10;;
27543;SDS011;17996;51.056;3.656;2022-12-10T16:32:45;82.85;;;43.30;;
27543;SDS011;17996;51.056;3.656;2022-12-10T16:35:11;85.25;;;44.20;;
27543;SDS011;17996;51.056;3.656;2022-12-10T16:37:39;64.93;;;36.63;;
27543;SDS011;17996;51.056;3.656;2022-12-10T16:40:09;63.95;;;37.13;;
27543;SDS011;17996;51.056;3.656;2022-12-10T16:42:36;63.78;;;35.25;;
27543;SDS011;17996;51.056;3.656;2022-12-10T16:45:02;60.75;;;34.40;;
27543;SDS011;17996;51.056;3.656;2022-12-10T16:47:34;60.83;;;32.70;;
27543;SDS011;17996;51.056;3.656;2022-12-10T16:50:00;57.05;;;32.50;;
27543;SDS011;17996;51.056;3.656;2022-12-10T16:52:25;58.35;;;34.50;;